TOURFACTS.DK  
Stats and Facts from Tour de France.

Tour de France 2018 starts in 16 days
  Riders   Stages   Teams   Summits   Yearly  


 
Search by year

After 2017 - Stage 21:
 14824 starters.
  5132 different riders.
  639 teams.
  2232 stages.
  456 restdays.
  439589.60 km.
  5653 abandonnees.


Top 3
GC
Christopher Froome86:20:55
Rigoberto Urán86:21:49
Romain Bardet86:23:15
Climb
Warren Barguil169 pt.
Primoz Roglic80 pt.
Thomas De Gendt64 pt.
Sprint
Michael Matthews359 pt.
André Greipel234 pt.
Edvald Boasson Hagen220 pt.
Youth
Simon Yates86:27:09
Louis Meintjes86:29:15
Emanuel Buchmann86:54:16
Facts from Tour de France 1948
  |   Stages.  |   Stage winners.  |   Days in yellow  |   Average speed.  |   Route.  |   Teams.  |   All riders.  |   Rookies.  |  

  |   Withdrawls.  |   GC.  |   Polka  |   Green  |   White  |   Summits. (In tour)  |   Miscellaneous.  |  

Stage 9 on 10 - 07 - 1948
         Owning:    Louison Bobet    
Pick a stage:  1 2 3 4 5 6 7 8 9 10 11 12 13 14 15 16 17 18 19 20 21
  ToulouseMontpellier | Dist: 246.00 km.

Average speed for all riders in stage:  39,914 km./hr.
    Place:Name:Team:Time:Km/h:
BELRaymond ImpanisBELBelgium06:03:01  +  00:00:00=40,659 
BELLeon JomauxBELAiglons Belges06:07:37  +  00:04:36=40,151 
NEDWim De RuyterINTHolland-Luxembourg06:07:39  +  00:04:38=40,147 
4 FRAPaul MayeFRACenter-South West06:08:26  +  00:05:25=40,062 
5 BELFlorent MathieuBELBelgium06:08:26  +  00:05:25=40,062 
6 ITASerifano BiagioniITAItaly06:08:29  +  00:05:28=40,056 
7 FRARaphaël GeminianiFRACenter-South West06:08:32  +  00:05:31=40,051 
8 BELMarcel DupontBELAiglons Belges06:08:32  +  00:05:31=40,051 
9 FRAMaurice De MuerFRAIle De France-North East06:08:32  +  00:05:31=40,051 
10 ITAVittorio SeghezziITACadetti Italiens06:08:38  +  00:05:37=40,040 
11 ITAUrbain CaffiFRAIle De France-North East06:08:38  +  00:05:37=40,040 
12 FRAGuy LapébieFRACenter-South West06:08:43  +  00:05:42=40,031 
13 FRAAndré BruléFRAParis06:08:43  +  00:05:42=40,031 
14 ITAGino SciardisINTInternations06:08:43  +  00:05:42=40,031 
15 FRAJacques PrasFRACenter-South West06:08:43  +  00:05:42=40,031 
16 FRAPierre BaratinFRAIle De France-North East06:08:43  +  00:05:42=40,031 
17 BELAndré DeclerckBELBelgium06:08:43  +  00:05:42=40,031 
18 BELRené MertensBELBelgium06:08:43  +  00:05:42=40,031 
19 BELAlbert RamonBELBelgium06:08:43  +  00:05:42=40,031 
20 BELBriek SchotteBELBelgium06:08:43  +  00:05:42=40,031 
21 BELEdward Van DijckBELBelgium06:08:43  +  00:05:42=40,031 
22 NEDHenk de HoogINTHolland-Luxembourg06:08:43  +  00:05:42=40,031 
23 NEDJoseph JanssenINTHolland-Luxembourg06:08:43  +  00:05:42=40,031 
24 LUXWilly KempINTHolland-Luxembourg06:08:43  +  00:05:42=40,031 
25 LUXJean KirchenINTHolland-Luxembourg06:08:43  +  00:05:42=40,031 
26 SUIPierre BrambillaINTInternations06:08:43  +  00:05:42=40,031 
27 ITAFermo CamelliniINTInternations06:08:43  +  00:05:42=40,031 
28 BELVictor JolyINTInternations06:08:43  +  00:05:42=40,031 
29 GEREdouard KlabinskiINTInternations06:08:43  +  00:05:42=40,031 
30 BELRoger LambrechtINTInternations06:08:43  +  00:05:42=40,031 
31 ITAPaul NeriINTInternations06:08:43  +  00:05:42=40,031 
32 ITAGiuseppe TaccaINTInternations06:08:43  +  00:05:42=40,031 
33 ITAGino BartaliITAItaly06:08:43  +  00:05:42=40,031 
34 ITAAntonio BevilacquaITAItaly06:08:43  +  00:05:42=40,031 
35 ITAGiovanni CorrieriITAItaly06:08:43  +  00:05:42=40,031 
36 ITAGiordano CotturITAItaly06:08:43  +  00:05:42=40,031 
37 ITAEgidio FeruglioITAItaly06:08:43  +  00:05:42=40,031 
38 ITABruno PasquiniITAItaly06:08:43  +  00:05:42=40,031 
39 ITAPrimo VolpiITAItaly06:08:43  +  00:05:42=40,031 
40 FRALouison BobetFRAFrance06:08:43  +  00:05:42=40,031 
41 FRAJean-Apotre LazaridesFRAFrance06:08:43  +  00:05:42=40,031 
42 FRAPaul GiguetFRAFrance06:08:43  +  00:05:42=40,031 
43 FRAJean RobicFRAFrance06:08:43  +  00:05:42=40,031 
44 FRALucien TeisseireFRAFrance06:08:43  +  00:05:42=40,031 
45 FRARené ViettoFRAFrance06:08:43  +  00:05:42=40,031 
46 BELLucien MathysBELAiglons Belges06:08:43  +  00:05:42=40,031 
47 BELRik RendersBELAiglons Belges06:08:43  +  00:05:42=40,031 
48 BELAndré RosseelBELAiglons Belges06:08:43  +  00:05:42=40,031 
49 ITAEnzo CoppiniITACadetti Italiens06:08:43  +  00:05:42=40,031 
50 MEXAttilio LambertiniITACadetti Italiens06:08:43  +  00:05:42=40,031 
51 ITAAldo RonconiITACadetti Italiens06:08:43  +  00:05:42=40,031 
52 ITAVittorio MagniITACadetti Italiens06:08:43  +  00:05:42=40,031 
53 ITAAlfred MacorigFRACenter-South West06:08:43  +  00:05:42=40,031 
54 FRADaniel OrtsFRACenter-South West06:08:43  +  00:05:42=40,031 
55 FRAGeorges RamouluxFRACenter-South West06:08:43  +  00:05:42=40,031 
56 FRAJean De GribaldyFRAIle De France-North East06:08:43  +  00:05:42=40,031 
57 FRAAlphonse De VreeseFRAIle De France-North East06:08:43  +  00:05:42=40,031 
58 FRAFrancois HelaryFRAIle De France-North East06:08:43  +  00:05:42=40,031 
59 FRAEdouard MullerFRAIle De France-North East06:08:43  +  00:05:42=40,031 
60 FRADaniel ThuayreFRAIle De France-North East06:08:43  +  00:05:42=40,031 
61 FRARobert BonnaventureFRAWest06:08:43  +  00:05:42=40,031 
62 FRAMaurice CarpentierFRAWest06:08:43  +  00:05:42=40,031 
63 FRAPierre CoganFRAWest06:08:43  +  00:05:42=40,031 
64 FRAJean-Marie GoasmatFRAWest06:08:43  +  00:05:42=40,031 
65 FRARaymond GueganFRAWest06:08:43  +  00:05:42=40,031 
66 FRARobert ChapatteFRAParis06:08:43  +  00:05:42=40,031 
67 FRAMaurice DiotFRAParis06:08:43  +  00:05:42=40,031 
68 FRAKléber PiotFRAParis06:08:43  +  00:05:42=40,031 
69 FRALouis ThiétardFRAParis06:08:43  +  00:05:42=40,031 
70 FRABernard GauthierFRASouth-East06:08:43  +  00:05:42=40,031 
71 FRAGeorges MartinFRASouth-East06:08:43  +  00:05:42=40,031 
72 FRAPierre MolinerisFRASouth-East06:08:43  +  00:05:42=40,031 
73 FRARaoul RemyFRASouth-East06:08:43  +  00:05:42=40,031 
74 FRAJean ReyFRASouth-East06:08:43  +  00:05:42=40,031 
75 FRAAmédée RollandFRASouth-East06:08:43  +  00:05:42=40,031 
76 BELJean EngelsBELAiglons Belges06:08:43  +  00:05:42=40,031 
77 BELMaurice MeersmanBELAiglons Belges06:08:43  +  00:05:42=40,031 
78 FRARoger ChupinFRAWest06:08:43  +  00:05:42=40,031 
79 BELFlorent RondeléBELAiglons Belges06:10:24  +  00:07:23=39,849 
80 FRAYvan MarieFRAWest06:11:03  +  00:08:02=39,779 
81 NEDBernard FrankenINTHolland-Luxembourg06:14:53  +  00:11:52=39,372 
82 FRAJacques MarinelliFRAParis06:23:28  +  00:20:27=38,491 
83 FRARaymond GoussotFRAParis06:23:33  +  00:20:32=38,483 
84 FRACamille DanguillaumeFRAFrance06:36:31  +  00:33:30=37,224 
85 BELStan OckersBELBelgium06:42:24  +  00:39:23=36,680 

Withdrawls: 5
 
Rider
Team
Reason
1  BELNorbert CallensBELBelgiumDid not finish
18  LUXRené BieverINTHolland-LuxembourgDid not finish
22  SUIRoger AeschlimannINTInternationsDid not finish
71  FRARobert DesbatsFRACenter-South WestDid not finish
88  GERCésar MarcelakFRAIle De France-North EastDid not finish

Todays birthdays.

1887  Charles Ponson
1913  Raymond Lemarie
1928  Jacques Dupont
1951  Francesco Moser
1959  Laurent Biondi
1975  Bert Grabsch
1987  Sacha Modolo




Visits: